Time;durP1;ratioP1;P1;durP2;ratioP2;P2;SDS_P1;SDS_P2;PMS_P1;PMS_P2;Temp;Humidity;BMP_temperature;BMP_pressure;BME280_temperature;BME280_humidity;BME280_pressure;Samples;Min_cycle;Max_cycle;Signal;HPM_P1;HPM_P2
2021/01/23 00:00:15;;;;;;;;;;;;;;;-1.89;97.33;91083.22;1057466;56;20199;-82
2021/01/23 00:01:16;;;;;;;;;;;;;;;-1.82;98.53;91081.28;1057405;56;20170;-83
2021/01/23 00:02:17;;;;;;;;;;;;;;;-1.85;99.02;91083.94;1059383;56;20185;-82
2021/01/23 00:03:18;;;;;;;;;;;;;;;-1.80;99.54;91099.22;1059341;56;21081;-83
2021/01/23 00:04:19;;;;;;;;;;;;;;;-1.92;97.84;91090.00;1057279;56;20269;-83
2021/01/23 00:05:19;;;;;;;;;;;;;;;-1.93;97.39;91101.59;1057175;56;20186;-86
2021/01/23 00:06:20;;;;;;;;;;;;;;;-1.96;97.34;91102.38;1057351;56;20162;-84
2021/01/23 00:07:20;;;;;;;;;;;;;;;-2.00;96.86;91093.06;1059289;56;20166;-83
2021/01/23 00:08:20;;;;;;;;;;;;;;;-1.92;99.07;91103.09;1057149;56;20266;-86
2021/01/23 00:09:21;;;;;;;;;;;;;;;-1.86;99.09;91098.16;1057140;56;20301;-83
2021/01/23 00:10:21;;;;;;;;;;;;;;;-1.88;99.01;91100.44;1059395;56;20151;-83
2021/01/23 00:11:22;;;;;;;;;;;;;;;-1.93;98.34;91098.22;1057120;56;20181;-82
2021/01/23 00:12:22;;;;;;;;;;;;;;;-2.00;97.65;91099.03;1057312;56;20166;-82
2021/01/23 00:13:23;;;;;;;;;;;;;;;-2.05;97.12;91108.03;1061558;56;20190;-83
2021/01/23 00:14:23;;;;;;;;;;;;;;;-1.98;97.23;91106.50;1057337;56;20198;-82
2021/01/23 00:15:24;;;;;;;;;;;;;;;-2.03;96.77;91102.41;1055192;56;20148;-83
2021/01/23 00:16:24;;;;;;;;;;;;;;;-2.05;96.75;91104.69;1057223;56;20182;-83
2021/01/23 00:17:25;;;;;;;;;;;;;;;-2.01;98.62;91130.84;1057211;56;20300;-83
2021/01/23 00:18:25;;;;;;;;;;;;;;;-1.99;97.92;91113.59;1057351;56;20174;-83
2021/01/23 00:19:26;;;;;;;;;;;;;;;-2.05;99.00;91115.91;1055067;56;20593;-84
2021/01/23 00:20:26;;;;;;;;;;;;;;;-1.98;99.19;91117.69;1057166;56;20158;-83
2021/01/23 00:21:27;;;;;;;;;;;;;;;-1.95;98.30;91113.59;1059464;56;20177;-82
2021/01/23 00:22:27;;;;;;;;;;;;;;;-1.97;98.28;91124.44;1057182;56;20305;-85
2021/01/23 00:23:28;;;;;;;;;;;;;;;-1.99;98.46;91131.19;1057283;56;20213;-82
2021/01/23 00:24:28;;;;;;;;;;;;;;;-2.01;97.32;91123.72;1059268;56;20170;-83
2021/01/23 00:25:29;;;;;;;;;;;;;;;-1.99;98.00;91118.09;1059398;56;20251;-83
2021/01/23 00:26:29;;;;;;;;;;;;;;;-2.04;98.19;91120.00;1059397;56;20154;-82
2021/01/23 00:27:30;;;;;;;;;;;;;;;-1.98;98.33;91119.59;1059349;56;20264;-83
2021/01/23 00:28:33;;;;;;;;;;;;;;;-2.00;97.83;91124.47;1059453;56;20624;-81
2021/01/23 00:29:33;;;;;;;;;;;;;;;-2.01;97.85;91126.34;1057509;56;20209;-82
2021/01/23 00:30:34;;;;;;;;;;;;;;;-2.00;97.41;91127.81;1059457;56;20170;-82
2021/01/23 00:31:34;;;;;;;;;;;;;;;-1.99;98.45;91137.16;1063736;55;20157;-84
2021/01/23 00:32:35;;;;;;;;;;;;;;;-2.00;98.65;91140.91;1059429;56;20174;-85
2021/01/23 00:33:35;;;;;;;;;;;;;;;-1.95;99.78;91134.53;1061627;56;20244;-84
2021/01/23 00:34:36;;;;;;;;;;;;;;;-1.92;99.48;91142.34;1063974;55;20177;-84
2021/01/23 00:35:36;;;;;;;;;;;;;;;-1.97;99.36;91140.16;1059680;56;20155;-83
2021/01/23 00:36:37;;;;;;;;;;;;;;;-2.00;98.69;91140.91;1057657;56;20162;-82
2021/01/23 00:37:37;;;;;;;;;;;;;;;-1.96;99.26;91140.91;1059653;56;20162;-82
2021/01/23 00:38:38;;;;;;;;;;;;;;;-1.91;99.60;91145.72;1059566;56;21128;-83
2021/01/23 00:39:39;;;;;;;;;;;;;;;-1.87;98.83;91147.16;1057403;56;20301;-84
2021/01/23 00:40:41;;;;;;;;;;;;;;;-1.88;98.81;91150.94;1059710;56;20166;-82
2021/01/23 00:41:42;;;;;;;;;;;;;;;-1.99;96.93;91141.66;1061769;56;20643;-82
2021/01/23 00:42:42;;;;;;;;;;;;;;;-1.98;97.99;91143.13;1059453;56;20309;-84
2021/01/23 00:43:43;;;;;;;;;;;;;;;-1.97;98.78;91139.41;1057529;56;20642;-83
2021/01/23 00:44:43;;;;;;;;;;;;;;;-2.01;98.54;91147.28;1061681;56;20666;-85
2021/01/23 00:45:43;;;;;;;;;;;;;;;-1.98;99.14;91146.50;1061827;56;20198;-83
2021/01/23 00:46:45;;;;;;;;;;;;;;;-2.03;99.11;91150.28;1057387;56;20194;-81
2021/01/23 00:47:45;;;;;;;;;;;;;;;-1.94;99.36;91157.69;1057443;56;20186;-84
2021/01/23 00:48:45;;;;;;;;;;;;;;;-1.86;99.50;91158.38;1061763;56;20197;-82
2021/01/23 00:49:47;;;;;;;;;;;;;;;-1.85;99.45;91157.25;1061699;56;20229;-84
2021/01/23 00:50:48;;;;;;;;;;;;;;;-1.88;99.73;91163.28;1059546;56;20158;-83
2021/01/23 00:51:49;;;;;;;;;;;;;;;-1.87;100.00;91160.25;1059724;56;20158;-82
2021/01/23 00:52:50;;;;;;;;;;;;;;;-1.90;99.17;91162.91;1057449;56;20186;-82
2021/01/23 00:53:51;;;;;;;;;;;;;;;-1.91;98.22;91159.53;1059469;56;20154;-83
2021/01/23 00:54:52;;;;;;;;;;;;;;;-1.88;98.52;91164.03;1061618;56;20161;-83
2021/01/23 00:55:53;;;;;;;;;;;;;;;-1.87;99.51;91170.00;1059611;56;20662;-82
2021/01/23 00:56:54;;;;;;;;;;;;;;;-1.86;99.54;91176.72;1061775;56;20287;-85
2021/01/23 00:57:54;;;;;;;;;;;;;;;-1.86;99.69;91166.97;1059584;56;20670;-83
2021/01/23 00:58:55;;;;;;;;;;;;;;;-1.87;98.69;91172.63;1057419;56;20219;-84
2021/01/23 00:59:55;;;;;;;;;;;;;;;-1.88;98.44;91169.25;1061715;56;20620;-84
2021/01/23 01:00:57;;;;;;;;;;;;;;;-1.87;98.18;91173.34;1061829;56;20202;-84
2021/01/23 01:01:58;;;;;;;;;;;;;;;-1.91;97.72;91175.25;1059736;56;20174;-82
2021/01/23 01:02:59;;;;;;;;;;;;;;;-1.91;96.96;91177.13;1059807;56;20162;-83
2021/01/23 01:03:59;;;;;;;;;;;;;;;-1.89;98.01;91175.63;1057471;56;20178;-83
2021/01/23 01:05:01;;;;;;;;;;;;;;;-1.92;98.49;91181.63;1057751;56;20186;-83
2021/01/23 01:06:03;;;;;;;;;;;;;;;-1.95;97.39;91179.03;1057563;56;20156;-83
2021/01/23 01:07:03;;;;;;;;;;;;;;;-1.95;97.42;91179.75;1057817;56;20186;-83
2021/01/23 01:08:04;;;;;;;;;;;;;;;-1.99;98.62;91181.66;1055711;56;20612;-83
2021/01/23 01:09:04;;;;;;;;;;;;;;;-1.96;99.24;91180.91;1057639;56;20198;-83
2021/01/23 01:10:06;;;;;;;;;;;;;;;-1.99;98.81;91181.66;1057637;56;20178;-82
2021/01/23 01:11:06;;;;;;;;;;;;;;;-1.89;99.44;91187.94;1057832;56;20261;-84
2021/01/23 01:12:07;;;;;;;;;;;;;;;-1.98;98.79;91190.25;1057692;56;20357;-83
2021/01/23 01:13:07;;;;;;;;;;;;;;;-1.92;99.89;91184.25;1059758;56;20261;-83
2021/01/23 01:14:08;;;;;;;;;;;;;;;-1.90;100.00;91189.09;1059974;56;20268;-85
2021/01/23 01:15:09;;;;;;;;;;;;;;;-1.93;99.58;91195.06;1062021;56;20292;-83
2021/01/23 01:16:10;;;;;;;;;;;;;;;-1.90;100.00;91197.69;1062043;56;20176;-83
2021/01/23 01:17:10;;;;;;;;;;;;;;;-2.01;98.72;91201.50;1059916;56;20162;-83
2021/01/23 01:18:14;;;;;;;;;;;;;;;-1.97;97.58;91202.25;1059837;56;20155;-83
2021/01/23 01:19:14;;;;;;;;;;;;;;;-1.96;98.49;91206.34;1059848;56;20171;-83
2021/01/23 01:20:15;;;;;;;;;;;;;;;-1.94;98.17;91210.03;1059880;56;20189;-82
2021/01/23 01:21:16;;;;;;;;;;;;;;;-1.90;97.94;91208.16;1062120;56;20166;-82
2021/01/23 01:22:16;;;;;;;;;;;;;;;-1.87;98.78;91215.25;1059743;56;20173;-82
2021/01/23 01:23:17;;;;;;;;;;;;;;;-1.91;98.44;91214.53;1060038;56;20196;-83
2021/01/23 01:24:19;;;;;;;;;;;;;;;-1.88;98.02;91220.87;1062133;56;20181;-84
2021/01/23 01:25:19;;;;;;;;;;;;;;;-1.96;97.70;91216.81;1057878;56;20154;-83
2021/01/23 01:26:20;;;;;;;;;;;;;;;-1.97;97.96;91218.69;1055734;56;20159;-83
2021/01/23 01:27:21;;;;;;;;;;;;;;;-1.90;98.22;91220.50;1055655;56;20171;-83
2021/01/23 01:28:21;;;;;;;;;;;;;;;-1.91;99.18;91219.00;1057827;56;20175;-84
2021/01/23 01:29:22;;;;;;;;;;;;;;;-1.89;98.90;91225.38;1055619;56;20163;-83
2021/01/23 01:30:22;;;;;;;;;;;;;;;-1.84;99.31;91232.81;1057776;56;20189;-83
2021/01/23 01:31:24;;;;;;;;;;;;;;;-1.79;99.11;91231.66;1060169;56;20221;-82
2021/01/23 01:32:24;;;;;;;;;;;;;;;-1.72;99.29;91236.84;1059992;56;20174;-84
2021/01/23 01:33:25;;;;;;;;;;;;;;;-1.79;98.13;91232.41;1057857;56;20194;-84
2021/01/23 01:34:27;;;;;;;;;;;;;;;-1.84;97.14;91237.31;1058162;56;20190;-83
2021/01/23 01:35:28;;;;;;;;;;;;;;;-1.85;96.61;91235.78;1058007;56;20158;-83
2021/01/23 01:36:29;;;;;;;;;;;;;;;-1.94;95.91;91236.22;1059745;56;20182;-83
2021/01/23 01:37:29;;;;;;;;;;;;;;;-1.92;96.24;91241.09;1060037;56;20182;-83
2021/01/23 01:38:30;;;;;;;;;;;;;;;-1.90;98.14;91238.81;1057732;56;20639;-84
2021/01/23 01:39:30;;;;;;;;;;;;;;;-1.91;98.00;91232.09;1057728;56;20591;-83
2021/01/23 01:40:31;;;;;;;;;;;;;;;-1.90;96.71;91234.34;1057856;56;20177;-83
2021/01/23 01:41:31;;;;;;;;;;;;;;;-1.88;96.74;91247.81;1057818;56;20191;-83
2021/01/23 01:42:32;;;;;;;;;;;;;;;-1.96;96.43;91241.13;1059808;56;20173;-83
2021/01/23 01:43:32;;;;;;;;;;;;;;;-1.93;96.16;91240.34;1059787;56;20174;-81
2021/01/23 01:44:33;;;;;;;;;;;;;;;-2.03;96.96;91239.25;1059679;56;20213;-84
2021/01/23 01:45:33;;;;;;;;;;;;;;;-1.96;96.16;91243.00;1059851;56;20265;-82
2021/01/23 01:46:38;;;;;;;;;;;;;;;-1.96;97.63;91246.34;1057554;56;20162;-83
2021/01/23 01:47:40;;;;;;;;;;;;;;;-1.93;98.18;91247.44;1058100;56;20193;-85
2021/01/23 01:48:40;;;;;;;;;;;;;;;-1.94;97.42;91248.56;1059806;56;20189;-85
2021/01/23 01:49:41;;;;;;;;;;;;;;;-1.85;98.14;91256.75;1059730;56;20163;-84
2021/01/23 01:50:41;;;;;;;;;;;;;;;-1.84;98.09;91260.88;1059865;56;20171;-83
2021/01/23 01:51:42;;;;;;;;;;;;;;;-1.87;98.05;91265.00;1057696;56;20155;-83
2021/01/23 01:52:43;;;;;;;;;;;;;;;-1.80;98.92;91262.34;1057520;56;20676;-84
2021/01/23 01:53:44;;;;;;;;;;;;;;;-1.88;97.91;91273.25;1059794;56;20186;-84
2021/01/23 01:54:44;;;;;;;;;;;;;;;-1.84;98.34;91271.34;1057722;56;20682;-82
2021/01/23 01:55:45;;;;;;;;;;;;;;;-1.78;99.10;91273.16;1057620;56;20166;-85
2021/01/23 01:56:47;;;;;;;;;;;;;;;-1.75;97.03;91271.66;1061935;56;20186;-84
2021/01/23 01:57:50;;;;;;;;;;;;;;;-1.84;97.72;91282.56;1059925;56;20689;-83
2021/01/23 01:58:51;;;;;;;;;;;;;;;-1.68;98.23;91281.34;1055753;56;20167;-82
2021/01/23 01:59:53;;;;;;;;;;;;;;;-1.76;97.41;91280.63;1055625;56;20633;-84
2021/01/23 02:00:53;;;;;;;;;;;;;;;-1.72;97.39;91286.59;1057730;56;20249;-83
2021/01/23 02:02:03;;;;;;;;;;;;;;;-1.77;97.01;91284.38;1059801;56;20170;-84
2021/01/23 02:03:12;;;;;;;;;;;;;;;-1.74;97.76;91285.50;1058109;56;20183;-83
2021/01/23 02:04:13;;;;;;;;;;;;;;;-1.76;98.17;91285.88;1058120;56;20191;-82
2021/01/23 02:05:23;;;;;;;;;;;;;;;-1.81;98.48;91284.41;1059770;56;20194;-84
2021/01/23 02:06:29;;;;;;;;;;;;;;;-1.76;98.28;91283.25;1060008;56;20182;-84
2021/01/23 02:07:30;;;;;;;;;;;;;;;-1.84;98.43;91289.69;1059796;56;21136;-84
2021/01/23 02:08:49;;;;;;;;;;;;;;;-1.77;98.31;91297.47;1057582;56;20155;-84
2021/01/23 02:09:58;;;;;;;;;;;;;;;-1.78;97.53;91291.50;1059836;56;20615;-83
2021/01/23 02:11:14;;;;;;;;;;;;;;;-1.77;98.84;91287.75;1055973;56;20223;-83
2021/01/23 02:12:35;;;;;;;;;;;;;;;-1.71;98.08;91292.56;1058699;56;20175;-82
2021/01/23 02:13:49;;;;;;;;;;;;;;;-1.80;97.52;91306.09;1053955;56;20228;-82
2021/01/23 02:14:59;;;;;;;;;;;;;;;-1.86;97.92;91305.00;1056661;56;20190;-82
2021/01/23 02:16:17;;;;;;;;;;;;;;;-1.89;99.10;91295.28;1058285;56;20167;-82
2021/01/23 02:17:20;;;;;;;;;;;;;;;-1.79;99.58;91302.38;1062657;56;20194;-84
2021/01/23 02:18:24;;;;;;;;;;;;;;;-1.81;99.71;91305.34;1061931;56;20184;-82
2021/01/23 02:19:27;;;;;;;;;;;;;;;-1.77;100.00;91306.06;1057807;56;20163;-82
2021/01/23 02:20:46;;;;;;;;;;;;;;;-1.67;100.00;91309.00;1057919;56;20221;-83
2021/01/23 02:22:06;;;;;;;;;;;;;;;-1.69;100.00;91311.28;1062656;56;20259;-83
2021/01/23 02:23:12;;;;;;;;;;;;;;;-1.74;99.80;91314.31;1061789;56;20228;-82
2021/01/23 02:24:14;;;;;;;;;;;;;;;-1.69;100.00;91319.87;1059890;56;20186;-83
2021/01/23 02:25:16;;;;;;;;;;;;;;;-1.69;100.00;91321.75;1059824;56;20237;-81
2021/01/23 02:26:30;;;;;;;;;;;;;;;-1.66;100.00;91321.75;1059696;56;20180;-81
2021/01/23 02:27:33;;;;;;;;;;;;;;;-1.64;100.00;91324.72;1060312;56;20185;-83
2021/01/23 02:28:51;;;;;;;;;;;;;;;-1.69;100.00;91330.34;1059990;56;20170;-83
2021/01/23 02:30:00;;;;;;;;;;;;;;;-1.63;100.00;91326.19;1058206;56;20253;-82
2021/01/23 02:31:11;;;;;;;;;;;;;;;-1.56;99.03;91343.75;1056029;56;20793;-83
2021/01/23 02:32:13;;;;;;;;;;;;;;;-1.60;97.68;91332.56;1060501;56;20660;-84
2021/01/23 02:33:15;;;;;;;;;;;;;;;-1.71;98.11;91340.47;1059715;56;20194;-82
2021/01/23 02:34:18;;;;;;;;;;;;;;;-1.71;97.74;91335.25;1057643;56;20159;-84
2021/01/23 02:35:18;;;;;;;;;;;;;;;-1.72;98.22;91340.84;1057928;56;20186;-83
2021/01/23 02:36:21;;;;;;;;;;;;;;;-1.71;97.97;91337.09;1057738;56;20162;-84
2021/01/23 02:37:22;;;;;;;;;;;;;;;-1.58;99.19;91338.16;1059706;56;20186;-83
2021/01/23 02:38:23;;;;;;;;;;;;;;;-1.57;99.64;91345.62;1059738;56;20198;-83
2021/01/23 02:39:23;;;;;;;;;;;;;;;-1.63;98.84;91343.78;1059988;56;20170;-85
2021/01/23 02:40:25;;;;;;;;;;;;;;;-1.67;99.35;91345.69;1059798;56;20166;-84
2021/01/23 02:41:26;;;;;;;;;;;;;;;-1.70;98.58;91344.59;1059748;56;20616;-82
2021/01/23 02:42:26;;;;;;;;;;;;;;;-1.73;98.04;91347.22;1057728;56;20186;-83
2021/01/23 02:43:27;;;;;;;;;;;;;;;-1.66;98.56;91349.81;1057567;56;20167;-84
2021/01/23 02:44:28;;;;;;;;;;;;;;;-1.76;98.14;91353.94;1059842;56;20177;-83
2021/01/23 02:45:28;;;;;;;;;;;;;;;-1.79;96.90;91355.47;1059718;56;20163;-83
2021/01/23 02:46:29;;;;;;;;;;;;;;;-1.67;97.42;91349.03;1057564;56;20186;-84
2021/01/23 02:47:29;;;;;;;;;;;;;;;-1.70;98.26;91357.69;1057684;56;20197;-84
2021/01/23 02:48:30;;;;;;;;;;;;;;;-1.66;97.86;91363.66;1057652;56;20261;-83
2021/01/23 02:49:30;;;;;;;;;;;;;;;-1.65;97.53;91359.16;1057808;56;20189;-83
2021/01/23 02:50:31;;;;;;;;;;;;;;;-1.71;97.65;91369.28;1057847;56;20273;-83
2021/01/23 02:51:49;;;;;;;;;;;;;;;-1.71;97.48;91373.75;1057627;56;20158;-83
2021/01/23 02:53:11;;;;;;;;;;;;;;;-1.63;98.00;91372.59;1058681;56;20151;-85
2021/01/23 02:54:20;;;;;;;;;;;;;;;-1.70;96.84;91368.16;1060510;56;20162;-83
2021/01/23 02:55:23;;;;;;;;;;;;;;;-1.70;96.97;91367.41;1062212;56;20253;-83
2021/01/23 02:56:24;;;;;;;;;;;;;;;-1.77;98.47;91363.69;1061853;56;20174;-83
2021/01/23 02:57:25;;;;;;;;;;;;;;;-1.77;98.86;91370.78;1059854;56;20671;-82
2021/01/23 02:58:27;;;;;;;;;;;;;;;-1.72;98.95;91374.88;1059779;56;20170;-85
2021/01/23 02:59:30;;;;;;;;;;;;;;;-1.72;98.38;91370.41;1059967;56;20158;-85
2021/01/23 03:00:31;;;;;;;;;;;;;;;-1.76;98.44;91369.66;1059453;56;20214;-82
2021/01/23 03:01:34;;;;;;;;;;;;;;;-1.70;98.65;91376.00;1059609;56;20636;-83
2021/01/23 03:02:36;;;;;;;;;;;;;;;-1.73;98.31;91374.16;1061738;56;20289;-82
2021/01/23 03:03:39;;;;;;;;;;;;;;;-1.70;98.90;91373.41;1059556;56;20221;-83
2021/01/23 03:04:41;;;;;;;;;;;;;;;-1.81;98.93;91370.81;1059618;56;20189;-83
2021/01/23 03:05:41;;;;;;;;;;;;;;;-1.81;98.56;91375.31;1059548;56;20313;-84
2021/01/23 03:06:43;;;;;;;;;;;;;;;-1.73;99.11;91384.62;1059379;56;20682;-84
2021/01/23 03:07:44;;;;;;;;;;;;;;;-1.69;98.98;91382.72;1057650;56;20185;-83
2021/01/23 03:08:46;;;;;;;;;;;;;;;-1.66;98.15;91389.09;1059783;56;20193;-82
2021/01/23 03:09:46;;;;;;;;;;;;;;;-1.83;98.45;91382.81;1057624;56;20166;-84
2021/01/23 03:10:47;;;;;;;;;;;;;;;-1.76;99.01;91385.38;1061947;56;20189;-83
2021/01/23 03:11:48;;;;;;;;;;;;;;;-1.66;98.76;91392.47;1059619;56;20670;-85
2021/01/23 03:12:48;;;;;;;;;;;;;;;-1.66;98.19;91389.84;1057397;56;20170;-82
2021/01/23 03:13:49;;;;;;;;;;;;;;;-1.71;98.64;91390.25;1059512;56;20174;-83
2021/01/23 03:14:49;;;;;;;;;;;;;;;-1.73;99.54;91397.72;1061909;56;20193;-84
2021/01/23 03:15:50;;;;;;;;;;;;;;;-1.68;98.37;91392.06;1059598;56;20620;-84
2021/01/23 03:16:55;;;;;;;;;;;;;;;-1.68;98.83;91393.97;1059868;56;20193;-83
2021/01/23 03:17:55;;;;;;;;;;;;;;;-1.63;97.94;91398.78;1059878;56;20256;-83
2021/01/23 03:18:56;;;;;;;;;;;;;;;-1.66;98.53;91394.34;1059864;56;20158;-84
2021/01/23 03:19:56;;;;;;;;;;;;;;;-1.63;98.32;91399.53;1059946;56;20201;-83
2021/01/23 03:20:57;;;;;;;;;;;;;;;-1.62;97.99;91398.44;1057742;56;20671;-83
2021/01/23 03:21:58;;;;;;;;;;;;;;;-1.64;98.34;91400.66;1059755;56;20170;-84
2021/01/23 03:22:59;;;;;;;;;;;;;;;-1.67;98.70;91392.81;1061669;56;20162;-83
2021/01/23 03:23:59;;;;;;;;;;;;;;;-1.68;99.15;91396.56;1059648;56;20725;-85
2021/01/23 03:25:00;;;;;;;;;;;;;;;-1.65;99.00;91396.56;1059712;56;20249;-83
2021/01/23 03:26:00;;;;;;;;;;;;;;;-1.65;99.43;91398.44;1059619;56;20181;-84
2021/01/23 03:27:00;;;;;;;;;;;;;;;-1.64;99.78;91408.53;1059614;56;20181;-85
2021/01/23 03:28:02;;;;;;;;;;;;;;;-1.62;98.89;91403.66;1059624;56;20345;-84
2021/01/23 03:29:03;;;;;;;;;;;;;;;-1.63;98.79;91401.41;1057446;56;20283;-84
2021/01/23 03:30:04;;;;;;;;;;;;;;;-1.58;98.79;91404.41;1059750;56;20162;-84
2021/01/23 03:31:05;;;;;;;;;;;;;;;-1.59;99.27;91405.50;1057514;56;20178;-84
2021/01/23 03:32:05;;;;;;;;;;;;;;;-1.62;100.00;91408.91;1059493;56;20159;-84
2021/01/23 03:33:06;;;;;;;;;;;;;;;-1.62;100.00;91408.91;1059851;56;20619;-83
2021/01/23 03:34:06;;;;;;;;;;;;;;;-1.70;100.00;91414.56;1061928;56;20181;-82
2021/01/23 03:35:07;;;;;;;;;;;;;;;-1.64;100.00;91411.16;1059711;56;20337;-82
2021/01/23 03:36:07;;;;;;;;;;;;;;;-1.55;99.49;91413.34;1059790;56;20717;-81
2021/01/23 03:37:08;;;;;;;;;;;;;;;-1.53;98.76;91414.47;1057605;56;20182;-82
2021/01/23 03:38:08;;;;;;;;;;;;;;;-1.63;98.94;91412.63;1057685;56;20286;-84
2021/01/23 03:39:09;;;;;;;;;;;;;;;-1.60;99.84;91414.50;1059705;56;20245;-83
2021/01/23 03:40:09;;;;;;;;;;;;;;;-1.53;99.69;91411.84;1059619;56;20189;-83
2021/01/23 03:41:10;;;;;;;;;;;;;;;-1.58;99.86;91414.88;1057500;56;20158;-84
2021/01/23 03:42:10;;;;;;;;;;;;;;;-1.53;99.50;91411.13;1059680;56;20158;-84
2021/01/23 03:43:11;;;;;;;;;;;;;;;-1.48;98.35;91415.94;1059731;56;20614;-82
2021/01/23 03:44:12;;;;;;;;;;;;;;;-1.43;97.73;91412.19;1057474;56;20268;-84
2021/01/23 03:45:13;;;;;;;;;;;;;;;-1.52;97.38;91410.72;1057339;56;20151;-83
2021/01/23 03:46:14;;;;;;;;;;;;;;;-1.58;97.61;91407.03;1059758;56;20162;-83
2021/01/23 03:47:14;;;;;;;;;;;;;;;-1.48;98.10;91415.22;1059479;56;20269;-84
2021/01/23 03:48:15;;;;;;;;;;;;;;;-1.54;97.52;91406.97;1062012;56;20197;-82
2021/01/23 03:49:15;;;;;;;;;;;;;;;-1.55;98.51;91410.72;1059932;56;20252;-83
2021/01/23 03:50:17;;;;;;;;;;;;;;;-1.55;99.08;91416.72;1059871;56;20591;-83
2021/01/23 03:51:17;;;;;;;;;;;;;;;-1.53;99.08;91409.25;1057882;56;20147;-82
2021/01/23 03:52:18;;;;;;;;;;;;;;;-1.53;98.44;91411.84;1057759;56;20155;-82
2021/01/23 03:53:18;;;;;;;;;;;;;;;-1.50;98.72;91406.97;1057865;56;20202;-82
2021/01/23 03:54:19;;;;;;;;;;;;;;;-1.51;99.66;91411.47;1059889;56;20154;-83
2021/01/23 03:55:19;;;;;;;;;;;;;;;-1.55;99.79;91414.09;1059849;56;20163;-83
2021/01/23 03:56:20;;;;;;;;;;;;;;;-1.59;99.99;91417.88;1062053;56;20300;-82
2021/01/23 03:57:20;;;;;;;;;;;;;;;-1.62;100.00;91416.75;1057805;56;20178;-83
2021/01/23 03:58:21;;;;;;;;;;;;;;;-1.59;100.00;91415.25;1057754;56;20175;-83
2021/01/23 03:59:22;;;;;;;;;;;;;;;-1.55;99.54;91415.97;1057554;56;20174;-83
2021/01/23 04:00:22;;;;;;;;;;;;;;;-1.63;99.45;91417.88;1057574;56;20174;-85
2021/01/23 04:01:23;;;;;;;;;;;;;;;-1.60;98.52;91421.63;1057742;56;20194;-82
2021/01/23 04:02:24;;;;;;;;;;;;;;;-1.68;98.10;91415.66;1055465;56;20174;-83
2021/01/23 04:03:24;;;;;;;;;;;;;;;-1.70;97.90;91420.53;1057598;56;20178;-83
2021/01/23 04:04:25;;;;;;;;;;;;;;;-1.69;98.21;91419.41;1057533;56;20159;-85
2021/01/23 04:05:25;;;;;;;;;;;;;;;-1.75;99.13;91409.72;1057650;56;20668;-84
2021/01/23 04:06:26;;;;;;;;;;;;;;;-1.71;98.41;91419.06;1059736;56;20190;-84
2021/01/23 04:07:26;;;;;;;;;;;;;;;-1.73;98.62;91416.06;1062068;56;20162;-84
2021/01/23 04:08:27;;;;;;;;;;;;;;;-1.70;99.48;91417.91;1064706;55;20182;-83
2021/01/23 04:09:27;;;;;;;;;;;;;;;-1.69;99.75;91416.03;1060042;56;20223;-84
2021/01/23 04:10:28;;;;;;;;;;;;;;;-1.73;99.43;91413.44;1060228;56;20185;-83
2021/01/23 04:11:28;;;;;;;;;;;;;;;-1.76;98.82;91422.03;1064667;55;20150;-82
2021/01/23 04:12:29;;;;;;;;;;;;;;;-1.82;98.29;91423.56;1062356;56;20165;-83
2021/01/23 04:13:29;;;;;;;;;;;;;;;-1.73;97.93;91418.66;1058132;56;20159;-84
2021/01/23 04:14:29;;;;;;;;;;;;;;;-1.77;97.56;91415.31;1056094;56;20155;-83
2021/01/23 04:15:30;;;;;;;;;;;;;;;-1.81;98.91;91411.97;1060259;56;20158;-83
2021/01/23 04:16:31;;;;;;;;;;;;;;;-1.86;99.08;91422.84;1060153;56;20209;-83
2021/01/23 04:17:31;;;;;;;;;;;;;;;-1.86;99.49;91414.97;1055660;56;20170;-83
2021/01/23 04:18:32;;;;;;;;;;;;;;;-1.84;99.08;91425.84;1058114;56;20205;-83
2021/01/23 04:19:32;;;;;;;;;;;;;;;-1.87;99.11;91421.34;1062383;56;20161;-83
2021/01/23 04:20:33;;;;;;;;;;;;;;;-1.85;99.69;91413.84;1060265;56;20553;-84
2021/01/23 04:21:34;;;;;;;;;;;;;;;-1.73;99.48;91421.28;1058266;56;20193;-84
2021/01/23 04:22:35;;;;;;;;;;;;;;;-1.67;98.26;91421.63;1060204;56;20154;-83
2021/01/23 04:23:36;;;;;;;;;;;;;;;-1.73;97.26;91420.53;1060183;56;20195;-82
2021/01/23 04:24:36;;;;;;;;;;;;;;;-1.78;96.96;91419.06;1060090;56;20163;-83
2021/01/23 04:25:37;;;;;;;;;;;;;;;-1.85;98.04;91424.31;1056048;56;20156;-83
2021/01/23 04:26:39;;;;;;;;;;;;;;;-1.86;98.38;91420.97;1058072;56;20150;-83
2021/01/23 04:27:40;;;;;;;;;;;;;;;-1.91;98.87;91423.22;1062493;56;20180;-82
2021/01/23 04:28:40;;;;;;;;;;;;;;;-1.94;99.20;91423.97;1060135;56;20189;-83
2021/01/23 04:29:41;;;;;;;;;;;;;;;-1.97;99.70;91428.13;1062472;56;20159;-83
2021/01/23 04:30:42;;;;;;;;;;;;;;;-1.86;99.56;91433.31;1064808;55;20582;-82
2021/01/23 04:31:43;;;;;;;;;;;;;;;-1.86;98.88;91435.94;1059951;56;20162;-83
2021/01/23 04:32:43;;;;;;;;;;;;;;;-1.85;98.39;91432.91;1058057;56;20183;-83
2021/01/23 04:33:44;;;;;;;;;;;;;;;-1.88;98.29;91431.06;1055917;56;20269;-83
2021/01/23 04:34:45;;;;;;;;;;;;;;;-1.87;98.21;91431.81;1060267;56;20192;-83
2021/01/23 04:35:45;;;;;;;;;;;;;;;-1.93;98.58;91433.31;1062497;56;20173;-84
2021/01/23 04:36:47;;;;;;;;;;;;;;;-1.94;99.44;91437.06;1062327;56;20686;-82
2021/01/23 04:37:47;;;;;;;;;;;;;;;-1.93;99.62;91436.72;1060241;56;20189;-84
2021/01/23 04:38:48;;;;;;;;;;;;;;;-1.91;99.70;91438.94;1060237;56;20177;-82
2021/01/23 04:39:48;;;;;;;;;;;;;;;-1.93;99.64;91439.31;1060068;56;20261;-84
2021/01/23 04:40:49;;;;;;;;;;;;;;;-1.91;100.00;91439.69;1055868;56;20155;-82
2021/01/23 04:41:49;;;;;;;;;;;;;;;-1.91;100.00;91441.56;1057918;56;20173;-83
2021/01/23 04:42:50;;;;;;;;;;;;;;;-1.89;100.00;91442.69;1060227;56;20170;-84
2021/01/23 04:43:51;;;;;;;;;;;;;;;-1.93;100.00;91433.31;1059940;56;20584;-84
2021/01/23 04:44:52;;;;;;;;;;;;;;;-1.90;100.00;91435.94;1062218;56;20188;-83
2021/01/23 04:45:53;;;;;;;;;;;;;;;-1.88;100.00;91443.41;1059991;56;20186;-83
2021/01/23 04:46:55;;;;;;;;;;;;;;;-1.86;100.00;91434.06;1060178;56;20158;-83
2021/01/23 04:47:55;;;;;;;;;;;;;;;-1.85;100.00;91438.16;1064489;55;20587;-83
2021/01/23 04:48:56;;;;;;;;;;;;;;;-1.82;100.00;91439.28;1062456;56;20178;-83
2021/01/23 04:49:57;;;;;;;;;;;;;;;-1.80;100.00;91434.41;1060227;56;20193;-85
2021/01/23 04:50:58;;;;;;;;;;;;;;;-1.81;100.00;91440.75;1060196;56;20185;-82
2021/01/23 04:52:04;;;;;;;;;;;;;;;-1.80;100.00;91434.41;1060161;56;20158;-83
2021/01/23 04:53:04;;;;;;;;;;;;;;;-1.70;100.00;91433.63;1055981;56;20194;-84
2021/01/23 04:54:05;;;;;;;;;;;;;;;-1.73;100.00;91436.25;1055867;56;20245;-83
2021/01/23 04:55:07;;;;;;;;;;;;;;;-1.71;100.00;91431.38;1058300;56;20194;-84
2021/01/23 04:56:07;;;;;;;;;;;;;;;-1.75;100.00;91433.28;1058062;56;20159;-84
2021/01/23 04:57:08;;;;;;;;;;;;;;;-1.70;99.79;91435.50;1060035;56;20296;-82
2021/01/23 04:58:09;;;;;;;;;;;;;;;-1.68;100.00;91435.84;1060430;56;20595;-83
2021/01/23 04:59:10;;;;;;;;;;;;;;;-1.76;99.64;91427.28;1060719;56;20170;-83
2021/01/23 05:00:12;;;;;;;;;;;;;;;-1.70;100.00;91432.88;1060279;56;20162;-83
2021/01/23 05:01:13;;;;;;;;;;;;;;;-1.72;100.00;91430.62;1060391;56;20182;-83
2021/01/23 05:02:16;;;;;;;;;;;;;;;-1.72;100.00;91422.78;1060105;56;20185;-83
2021/01/23 05:03:17;;;;;;;;;;;;;;;-1.61;99.96;91418.25;1060053;56;20185;-82
2021/01/23 05:04:17;;;;;;;;;;;;;;;-1.69;98.78;91426.53;1059974;56;20162;-82
2021/01/23 05:05:18;;;;;;;;;;;;;;;-1.71;98.41;91428.75;1062370;56;20288;-84
2021/01/23 05:06:18;;;;;;;;;;;;;;;-1.64;98.27;91431.34;1060237;56;20610;-84
2021/01/23 05:07:30;;;;;;;;;;;;;;;-1.77;98.23;91420.56;1060191;56;20163;-83
2021/01/23 05:08:35;;;;;;;;;;;;;;;-1.77;99.07;91431.78;1062173;56;20186;-84
2021/01/23 05:09:36;;;;;;;;;;;;;;;-1.78;99.65;91421.69;1060278;56;20250;-84
2021/01/23 05:10:36;;;;;;;;;;;;;;;-1.75;100.00;91425.44;1060161;56;20162;-83
2021/01/23 05:11:49;;;;;;;;;;;;;;;-1.79;100.00;91425.44;1060176;56;20177;-84
2021/01/23 05:12:54;;;;;;;;;;;;;;;-1.79;100.00;91426.19;1056687;56;20254;-83
2021/01/23 05:14:10;;;;;;;;;;;;;;;-1.76;100.00;91424.66;1058304;56;20194;-82
2021/01/23 05:15:16;;;;;;;;;;;;;;;-1.70;100.00;91431.00;1060761;56;20162;-84
2021/01/23 05:16:26;;;;;;;;;;;;;;;-1.84;100.00;91431.81;1060246;56;20177;-84
2021/01/23 05:17:27;;;;;;;;;;;;;;;-1.82;100.00;91426.94;1058409;56;20994;-84
2021/01/23 05:18:28;;;;;;;;;;;;;;;-1.80;100.00;91423.91;1060134;56;20162;-82
2021/01/23 05:19:41;;;;;;;;;;;;;;;-1.82;100.00;91429.56;1062362;56;20616;-83
2021/01/23 05:20:44;;;;;;;;;;;;;;;-1.82;100.00;91421.69;1058377;56;20163;-84
2021/01/23 05:21:59;;;;;;;;;;;;;;;-1.79;100.00;91422.81;1058163;56;20174;-84